Date,TemperatureHighF,TemperatureAvgF,TemperatureLowF,DewpointHighF,DewpointAvgF,DewpointLowF,HumidityHigh,HumidityAvg,HumidityLow,PressureMaxIn,PressureMinIn,WindSpeedMaxMPH,WindSpeedAvgMPH,GustSpeedMaxMPH,PrecipitationSumIn
2013-1-1,44.9,39.1,33.3,39.6,36.0,31.8,95,89,79,29.93,29.30,8,1,8,0.08
2013-1-2,52.9,45.7,39.2,50.3,43.7,36.4,96,93,88,30.04,29.92,7,1,7,0.14
2013-1-3,53.5,51.2,48.6,49.6,47.7,44.1,94,88,81,30.41,30.04,8,3,8,0.02
2013-1-4,51.6,49.9,48.0,48.7,46.8,44.8,93,89,82,30.47,30.40,6,2,6,0.00
2013-1-5,51.0,49.4,46.6,48.1,46.2,42.3,93,89,84,30.45,30.27,12,1,12,0.02
2013-1-6,48.5,44.6,37.5,45.9,42.8,35.9,96,93,87,30.45,30.20,2,0,3,0.02
2013-1-7,48.6,47.9,46.8,47.8,46.7,45.4,97,95,94,30.20,30.00,2,0,2,0.42
2013-1-8,52.1,47.6,39.3,50.7,45.2,37.1,97,91,78,30.15,29.96,8,1,8,0.19
2013-1-9,46.7,40.3,34.1,42.3,37.9,32.8,96,91,82,30.16,30.05,5,1,5,0.00
2013-1-10,39.6,36.6,33.1,38.6,35.5,31.9,97,96,93,30.06,29.96,4,0,4,0.04
2013-1-11,41.2,38.8,36.8,39.8,37.7,35.5,97,96,93,30.02,29.97,2,0,2,0.01
2013-1-12,41.2,37.6,34.8,36.6,34.6,32.1,95,89,81,30.13,29.96,5,1,5,0.00
2013-1-13,36.4,34.7,33.2,35.3,33.0,31.7,96,94,89,30.14,29.98,1,0,1,0.13
2013-1-14,41.0,35.7,32.9,36.0,32.9,29.3,97,90,79,29.98,29.75,6,1,6,0.05
2013-1-15,41.5,34.1,29.3,34.5,30.9,27.0,93,88,74,29.93,29.82,2,0,3,0.00
2013-1-16,34.2,32.0,28.3,29.2,27.6,25.8,92,84,79,29.99,29.86,1,0,1,0.00
2013-1-17,36.4,34.1,32.5,29.8,27.9,25.5,85,78,69,30.00,29.83,5,1,5,0.00
2013-1-18,37.7,34.0,31.6,30.9,27.7,24.8,92,78,64,29.83,29.58,10,3,10,0.00
2013-1-19,39.0,34.4,32.5,34.6,31.1,27.9,94,88,81,29.75,29.60,9,2,9,0.01
2013-1-20,34.4,33.5,32.5,31.0,29.2,27.3,91,84,79,29.73,29.56,7,1,7,0.00
2013-1-21,34.6,33.8,33.0,32.5,31.8,29.9,94,92,84,29.56,29.50,12,3,12,0.35
2013-1-22,36.1,35.3,34.1,33.6,33.0,32.1,93,91,88,29.85,29.54,9,2,9,0.33
2013-1-23,36.8,35.0,33.5,32.7,31.8,30.3,91,88,83,29.97,29.85,4,1,4,0.03
2013-1-24,37.2,35.1,33.0,34.2,31.7,29.4,93,88,77,30.07,29.97,5,0,5,0.03
2013-1-25,35.5,34.0,32.6,33.2,31.6,28.9,95,91,78,29.97,29.40,7,0,7,0.40
2013-1-26,44.6,37.6,32.5,42.7,35.1,30.7,96,91,80,29.57,28.97,7,1,7,0.51
2013-1-27,46.9,41.2,36.3,45.1,38.3,34.0,94,89,83,29.22,28.78,13,3,13,0.30
2013-1-28,46.2,42.0,38.6,43.3,38.7,35.3,95,88,81,29.33,28.88,20,4,20,0.44
2013-1-29,51.3,45.8,43.6,50.4,41.3,37.3,97,84,70,29.33,28.94,13,4,13,0.46
2013-1-30,46.9,43.3,38.1,39.5,36.8,33.0,91,78,61,29.64,29.11,17,5,17,0.14
2013-1-31,43.1,40.6,37.8,39.8,37.7,35.7,95,89,81,29.65,29.20,9,2,9,0.71
2013-2-1,43.2,39.5,35.9,40.2,34.6,28.9,94,83,67,29.83,29.36,12,3,12,0.09
2013-2-2,44.8,36.7,31.3,32.2,28.8,25.8,90,74,50,30.19,29.83,6,1,6,0.00
2013-2-3,49.6,44.5,35.6,46.5,40.5,32.3,95,86,73,30.02,29.46,13,4,13,0.04
2013-2-4,49.6,38.5,31.8,46.6,33.9,28.9,93,84,66,29.54,29.31,20,6,20,0.20
2013-2-5,45.5,38.4,30.8,39.7,33.4,27.9,93,83,72,29.57,29.05,17,5,17,0.01
2013-2-6,41.9,39.1,34.9,33.0,29.1,26.3,77,67,58,30.14,29.56,21,6,21,0.00
2013-2-7,40.5,36.4,31.5,33.9,31.1,26.0,88,81,72,30.14,30.01,4,0,4,0.00
2013-2-8,44.7,38.6,32.9,37.5,33.9,30.6,95,84,66,30.17,30.07,4,1,4,0.05
2013-2-9,40.5,39.0,37.4,38.9,37.3,35.2,96,94,89,30.13,29.82,4,0,4,0.10
2013-2-10,38.7,37.4,35.9,36.5,34.9,33.3,92,90,87,29.82,29.43,5,2,5,0.08
2013-2-11,43.3,37.7,35.2,35.5,32.4,29.4,93,81,67,29.96,29.51,7,2,7,0.02
2013-2-12,39.6,36.3,34.7,31.5,30.4,29.0,84,79,71,30.10,29.97,5,1,5,0.00
2013-2-13,39.4,34.8,31.8,38.3,32.3,28.2,96,91,78,30.08,29.52,9,0,9,0.58
2013-2-14,48.8,43.5,38.9,42.7,40.0,37.4,96,88,77,29.81,29.53,7,2,7,0.19
2013-2-15,51.8,43.8,36.3,41.8,38.8,33.9,94,83,62,30.12,29.81,5,1,5,0.00
2013-2-16,46.2,41.6,34.3,43.7,39.4,32.5,95,92,88,30.13,30.10,2,0,2,0.00
2013-2-17,51.7,43.4,30.1,41.8,37.8,28.3,93,81,61,30.12,30.06,10,1,10,0.00
2013-2-18,53.2,35.6,26.4,38.9,30.8,25.2,96,84,54,30.14,30.09,2,0,2,0.00
2013-2-19,49.6,36.3,24.2,39.5,32.3,22.7,96,86,63,30.16,30.11,4,0,4,0.00
2013-2-20,42.7,39.8,32.3,39.3,35.6,27.8,91,85,78,30.33,30.15,6,2,6,0.00
2013-2-21,41.0,34.6,30.1,30.2,27.3,25.7,85,75,63,30.35,30.30,6,1,6,0.00
2013-2-22,37.6,35.0,32.9,28.0,25.9,23.5,79,69,63,30.35,30.29,4,0,4,0.00
2013-2-23,44.2,35.9,31.2,32.9,29.1,26.7,90,77,54,30.41,30.29,4,1,4,0.00
2013-2-24,44.6,37.4,32.2,35.4,32.4,29.0,91,82,68,30.51,30.41,5,1,5,0.00
2013-2-25,50.1,36.4,27.1,37.8,31.6,25.3,95,84,59,30.66,30.51,5,1,5,0.00
2013-2-26,51.7,36.9,27.4,40.7,32.2,25.9,95,84,50,30.71,30.65,5,0,5,0.01
2013-2-27,53.2,33.3,23.8,40.3,30.0,22.3,95,88,59,30.71,30.60,1,0,1,0.00
2013-2-28,45.9,35.5,25.8,40.4,33.0,24.3,96,91,79,30.60,30.52,1,0,1,0.00
2013-3-1,52.7,40.6,31.3,39.7,34.6,28.6,94,80,55,30.57,30.44,4,0,4,0.00
2013-3-2,56.5,42.3,27.7,44.5,36.4,25.9,96,81,60,30.44,30.26,5,0,5,0.00
2013-3-3,49.4,44.7,41.1,42.9,39.8,37.3,89,83,71,30.27,30.11,4,0,4,0.00
2013-3-4,48.4,41.3,31.0,37.4,35.3,28.7,93,79,61,30.11,29.76,4,0,4,0.00
2013-3-5,53.0,39.9,29.0,39.2,33.8,27.5,95,80,55,29.81,29.66,4,0,5,0.00
2013-3-6,42.3,40.2,38.1,38.5,36.6,34.1,91,87,85,29.74,29.67,8,2,8,0.00
2013-3-7,44.4,41.8,40.1,41.9,39.2,37.1,93,91,87,29.67,29.58,12,4,12,0.09
2013-3-8,40.8,39.4,38.0,38.2,37.0,36.3,94,91,85,29.75,29.60,12,4,12,0.16
2013-3-9,39.3,37.9,35.8,36.9,33.9,27.7,93,86,72,29.94,29.75,12,3,12,0.06
2013-3-10,40.3,33.5,26.0,34.0,28.0,21.8,90,80,71,30.16,29.94,12,3,12,0.04
2013-3-11,38.1,30.2,25.0,25.5,21.1,18.5,89,69,52,30.18,30.14,9,3,9,0.06
2013-3-12,46.4,36.2,27.0,32.6,26.6,19.7,77,68,54,30.16,29.92,7,2,7,0.00
2013-3-13,44.6,38.7,27.8,29.5,27.1,23.3,84,64,51,30.01,29.90,5,1,5,0.00
2013-3-14,43.3,35.4,26.2,39.0,32.1,22.7,94,88,77,30.01,29.59,6,1,6,0.08
2013-3-15,47.4,40.9,33.6,42.2,37.1,30.5,92,87,72,29.59,29.37,12,2,12,0.09
2013-3-16,39.5,35.5,30.2,35.9,33.3,28.4,95,92,83,29.40,29.20,9,1,9,0.17
2013-3-17,43.2,38.8,34.6,39.5,35.9,32.1,94,89,79,29.29,29.14,7,2,7,0.21
2013-3-18,39.9,36.9,32.7,38.0,34.2,29.5,94,90,86,29.57,29.29,8,3,8,0.08
2013-3-19,37.7,35.0,32.7,33.9,31.7,29.3,94,88,81,29.70,29.56,12,3,15,0.13
2013-3-20,39.1,35.2,32.4,35.1,32.2,29.8,95,89,76,30.08,29.70,5,1,5,0.09
2013-3-21,41.4,35.2,31.4,33.1,30.0,28.7,93,82,66,30.12,30.04,10,2,10,0.01
2013-3-22,36.7,35.7,34.7,31.4,30.1,28.6,85,80,75,30.05,29.99,13,4,16,0.00
2013-3-23,35.6,34.6,33.5,30.1,28.2,25.7,82,77,71,30.23,30.00,12,4,12,0.00
2013-3-24,37.5,35.0,34.0,29.1,26.8,24.2,80,72,60,30.33,30.22,12,3,12,0.00
2013-3-25,38.1,34.9,33.1,30.6,28.4,25.9,85,77,68,30.33,30.28,9,2,9,0.00
2013-3-26,40.5,34.8,31.6,33.3,28.7,24.9,88,78,66,30.28,30.19,7,2,7,0.01
2013-3-27,41.5,35.1,30.9,34.1,28.7,25.8,90,78,63,30.19,30.11,7,2,7,0.02
2013-3-28,44.9,36.9,32.7,31.7,28.3,25.3,85,71,52,30.13,30.06,12,2,12,0.00
2013-3-29,45.0,36.2,30.2,34.8,28.5,23.9,84,74,55,30.06,29.95,6,1,6,0.01
2013-3-30,45.4,34.2,23.2,32.6,26.6,20.7,93,75,50,30.04,29.98,8,1,8,0.00
2013-3-31,44.0,35.0,25.9,30.6,25.8,22.2,91,71,49,30.04,30.01,12,1,12,0.00
2013-4-1,46.5,36.6,30.2,29.4,26.1,24.4,80,66,49,30.12,30.03,7,2,9,0.00
2013-4-2,47.0,38.7,32.0,35.8,28.9,24.1,88,68,50,30.27,30.12,5,1,5,0.00
2013-4-3,49.9,39.0,27.7,33.6,29.5,24.4,93,71,44,30.33,30.27,6,1,6,0.00
2013-4-4,50.9,41.7,34.8,35.4,31.7,28.1,82,68,45,30.31,30.25,7,1,7,0.00
2013-4-5,51.5,40.4,31.6,34.2,30.1,26.2,84,68,42,30.29,30.24,8,1,8,0.00
2013-4-6,53.0,38.4,24.7,35.8,29.9,22.2,93,73,42,30.29,30.20,7,1,7,0.00
2013-4-7,42.3,38.3,35.4,37.7,34.3,30.3,91,86,78,30.20,30.02,6,1,6,0.00
2013-4-8,48.8,39.5,34.3,33.9,31.0,27.2,90,73,48,30.02,29.77,9,2,9,0.00
2013-4-9,50.1,39.7,33.1,34.8,28.6,23.4,85,66,39,29.77,29.69,10,2,10,0.00
2013-4-10,46.6,40.3,36.1,40.8,35.6,31.6,90,83,73,29.74,29.62,5,1,5,0.05
2013-4-11,46.7,41.4,37.3,38.2,35.7,33.8,89,80,68,29.62,29.44,5,2,6,0.00
2013-4-12,45.7,40.9,36.6,40.3,36.6,32.9,90,84,78,29.67,29.41,6,1,6,0.03
2013-4-13,56.3,46.7,38.8,45.6,39.5,36.5,92,78,52,29.75,29.45,10,2,10,0.05
2013-4-14,57.7,53.1,49.2,50.2,47.9,45.6,93,83,68,29.48,29.39,22,7,25,0.35
2013-4-15,60.7,52.3,47.8,50.0,45.6,42.5,90,78,62,29.73,29.46,18,4,18,0.12
2013-4-16,53.6,49.1,45.3,46.5,42.6,37.7,90,79,62,29.82,29.36,23,8,23,0.23
2013-4-17,54.5,46.4,39.8,50.0,42.6,36.3,95,87,75,29.84,29.11,18,4,18,0.77
2013-4-18,53.6,48.2,44.0,46.7,43.0,37.8,94,82,71,29.92,29.08,13,5,13,0.11
2013-4-19,58.5,47.4,35.3,41.1,36.7,31.6,90,68,45,30.43,29.92,9,2,9,0.00
2013-4-20,56.4,48.5,38.7,44.2,39.3,34.8,89,71,52,30.43,30.14,14,4,14,0.00
2013-4-21,53.9,46.7,41.6,43.5,41.4,37.5,92,82,61,30.14,29.85,12,3,15,0.16
2013-4-22,56.6,47.7,40.9,49.1,42.0,37.7,90,81,64,29.86,29.58,12,4,12,0.00
2013-4-23,55.5,49.7,45.4,44.7,41.3,39.1,87,73,59,30.04,29.70,13,6,15,0.02
2013-4-24,55.5,49.0,43.9,47.6,41.2,33.0,95,76,48,30.22,29.89,10,2,15,0.26
2013-4-25,53.9,45.3,39.9,43.3,38.3,34.9,88,77,61,30.21,30.01,8,2,8,0.02
2013-4-26,52.9,43.5,34.8,39.4,35.7,32.0,91,75,50,30.03,29.84,8,2,8,0.05
2013-4-27,54.9,45.7,37.8,35.8,32.3,26.5,84,61,36,30.14,29.96,7,2,10,0.01
2013-4-28,53.7,45.8,40.0,43.2,38.9,34.6,90,77,60,29.96,29.60,12,4,12,0.01
2013-4-29,54.9,46.3,40.2,40.5,36.8,33.7,87,71,46,30.10,29.60,18,5,18,0.01
2013-4-30,58.5,46.7,32.9,37.1,33.4,26.9,91,63,31,30.31,30.10,9,2,9,0.00
2013-5-1,56.6,48.7,41.4,44.5,37.9,30.6,89,68,40,30.27,30.09,12,3,12,0.01
2013-5-2,54.7,45.5,32.8,45.3,38.3,30.0,93,77,49,30.28,29.99,12,2,12,0.01
2013-5-3,52.1,49.4,41.7,49.1,45.9,37.4,92,88,83,29.99,29.65,10,3,12,0.38
2013-5-4,52.0,45.1,37.9,43.7,39.3,34.1,88,80,63,29.88,29.72,12,2,12,0.00
2013-5-5,60.2,54.0,47.9,53.8,48.4,42.9,88,82,68,30.03,29.87,9,3,9,0.00
2013-5-6,55.4,52.6,50.4,51.1,48.7,47.0,89,87,84,30.04,30.00,8,1,8,0.00
2013-5-7,74.1,64.7,53.0,55.1,49.1,41.6,80,57,46,30.08,29.87,6,2,6,0.00
2013-5-8,57.8,52.7,46.7,50.2,46.0,40.6,93,79,55,29.87,29.50,16,3,16,0.09
2013-5-9,53.6,48.4,43.6,46.5,42.4,38.8,90,80,62,29.54,29.37,12,2,12,0.12
2013-5-10,56.7,48.2,42.5,47.4,43.2,38.9,91,83,65,29.63,29.39,9,2,11,0.12
2013-5-11,52.2,47.3,42.6,46.3,42.8,40.1,93,85,74,29.74,29.48,10,2,10,0.10
2013-5-12,53.6,47.2,40.8,48.7,42.9,37.3,93,85,73,29.78,29.56,12,2,12,0.14
2013-5-13,51.6,43.4,36.1,43.3,38.4,33.9,93,83,69,29.61,29.41,12,3,16,0.20
2013-5-14,53.6,45.7,40.0,44.6,40.0,36.3,88,81,59,29.43,29.36,13,3,13,0.01
2013-5-15,58.7,46.3,35.4,43.6,38.7,33.3,94,76,52,29.43,29.30,8,1,8,0.06
2013-5-16,60.0,48.9,36.4,42.5,39.0,34.0,94,70,45,29.71,29.39,9,1,9,0.00
2013-5-17,64.3,51.1,36.8,44.5,38.8,34.3,93,66,38,29.88,29.71,6,1,6,0.00
2013-5-18,62.1,55.8,50.6,55.5,50.2,42.3,94,82,71,29.87,29.70,12,3,12,0.39
2013-5-19,60.7,53.2,49.3,56.0,51.1,47.9,96,93,84,29.99,29.81,4,0,4,0.15
2013-5-20,74.8,62.6,54.4,62.4,56.3,49.4,95,81,58,30.03,29.90,7,1,7,0.00
2013-5-21,65.3,56.5,46.1,50.9,46.3,42.5,91,70,46,30.09,30.02,4,1,5,0.00
2013-5-22,59.3,50.3,40.3,44.7,38.6,33.5,88,66,39,30.10,30.02,9,2,9,0.00
2013-5-23,52.4,45.3,38.0,38.3,33.8,31.0,77,65,48,30.03,29.91,13,3,13,0.00
2013-5-24,62.1,51.1,41.3,43.4,37.4,32.5,87,61,40,30.22,29.91,12,3,12,0.00
2013-5-25,66.7,51.7,33.9,47.2,40.0,31.8,94,68,36,30.23,30.11,8,1,8,0.00
2013-5-26,63.9,52.8,39.9,50.4,44.8,36.6,91,75,53,30.13,29.76,9,1,9,0.00
2013-5-27,54.9,50.8,47.6,47.3,45.4,42.7,88,82,74,29.75,29.45,18,5,18,0.06
2013-5-28,58.3,51.9,46.8,48.6,45.6,40.4,93,79,65,29.81,29.53,7,2,7,0.07
2013-5-29,64.9,56.4,43.9,52.5,46.4,39.1,85,70,56,29.93,29.80,12,2,12,0.00
2013-5-30,70.1,61.0,54.6,55.8,48.6,42.6,83,64,54,30.07,29.90,7,1,8,0.00
2013-5-31,67.2,55.2,43.7,55.9,47.6,39.9,95,77,57,30.18,30.07,5,1,6,0.00
2013-6-1,61.1,52.0,43.1,50.1,42.2,37.8,84,70,50,30.31,30.18,6,1,6,0.00
2013-6-2,69.7,53.8,38.9,47.0,42.1,35.4,90,67,38,30.44,30.31,6,1,6,0.00
2013-6-3,71.3,59.0,45.8,57.8,50.9,41.9,89,75,59,30.50,30.44,4,0,5,0.00
2013-6-4,74.4,63.3,54.9,55.6,49.3,45.3,78,61,43,30.50,30.33,6,2,6,0.00
2013-6-5,65.2,56.4,49.8,55.9,50.6,46.3,92,81,64,30.33,30.17,5,1,5,0.01
2013-6-6,73.0,59.7,50.9,55.2,49.6,43.3,90,71,45,30.28,30.20,5,1,5,0.00
2013-6-7,68.8,56.8,42.8,54.9,48.6,40.6,95,75,54,30.35,30.28,8,2,8,0.00
2013-6-8,77.8,58.5,42.2,54.6,47.6,39.7,93,70,36,30.34,30.12,12,1,12,0.00
2013-6-9,68.8,56.6,46.9,55.8,49.8,44.2,93,79,60,30.15,30.00,5,2,5,0.00
2013-6-10,65.6,56.0,50.6,53.6,49.3,46.3,90,79,62,30.04,29.91,6,2,6,0.00
2013-6-11,62.7,55.9,50.3,54.1,50.3,45.6,90,82,65,29.92,29.69,5,2,5,0.05
2013-6-12,65.8,56.2,47.3,57.8,51.5,43.9,93,85,70,29.69,29.59,8,1,10,0.13
2013-6-13,64.8,54.4,46.9,49.4,45.9,43.2,92,74,52,29.78,29.56,5,1,5,0.00
2013-6-14,66.0,54.8,44.5,54.9,47.8,41.5,92,78,56,29.81,29.59,13,2,13,0.17
2013-6-15,53.6,50.4,46.9,49.5,46.6,43.6,94,87,72,29.59,29.42,13,2,13,0.17
2013-6-16,73.3,56.3,45.9,54.9,48.6,43.9,95,77,45,30.00,29.58,6,1,6,0.00
2013-6-17,74.6,60.2,49.0,57.9,51.7,45.4,91,74,48,30.08,30.00,6,1,6,0.00
2013-6-18,71.5,61.8,54.8,57.4,53.6,49.1,91,75,55,30.04,29.92,8,1,8,0.00
2013-6-19,69.1,57.7,50.3,52.6,48.8,45.5,91,73,52,30.03,29.96,7,1,7,0.00
2013-6-20,78.9,61.9,47.7,57.5,51.1,43.9,92,70,40,30.03,29.78,6,1,6,0.00
2013-6-21,66.6,61.3,57.2,58.1,53.7,47.4,89,76,58,29.80,29.60,9,0,9,0.02
2013-6-22,64.5,56.2,51.1,55.2,51.0,48.3,94,83,62,29.60,29.30,8,1,8,0.26
2013-6-23,64.4,56.2,46.9,54.7,48.9,44.4,94,77,59,29.94,29.37,8,2,8,0.02
2013-6-24,61.7,54.9,48.5,47.0,44.8,41.8,85,69,56,30.26,29.94,4,0,4,0.01
2013-6-25,65.3,54.7,42.4,52.3,47.1,39.4,91,76,58,30.39,30.26,5,0,5,0.00
2013-6-26,69.6,58.3,47.2,51.4,47.8,44.8,93,70,44,30.42,30.39,5,0,5,0.00
2013-6-27,62.4,55.5,49.9,57.2,51.5,46.2,92,86,80,30.42,30.14,4,0,4,0.13
2013-6-28,67.4,58.1,50.0,58.6,52.8,43.8,95,83,65,30.14,29.89,6,1,6,0.14
2013-6-29,60.1,54.4,46.8,54.1,48.5,42.5,91,81,67,30.14,30.06,8,1,8,0.00
2013-6-30,62.8,57.6,51.6,57.2,52.2,46.7,89,82,68,30.10,29.84,14,2,14,0.00
2013-7-1,65.8,55.4,48.6,49.7,46.0,41.1,90,72,47,29.90,29.84,5,1,5,0.00
2013-7-2,57.2,53.8,48.9,53.7,49.6,44.4,94,86,73,29.88,29.45,12,1,12,0.24
2013-7-3,67.0,59.3,54.7,57.3,54.0,50.5,96,83,66,29.81,29.46,7,1,7,0.01
2013-7-4,64.9,59.1,53.6,60.2,53.4,47.3,95,82,63,30.13,29.71,8,2,8,0.43
2013-7-5,69.3,59.9,53.5,56.5,52.5,48.0,89,77,62,30.36,30.13,9,2,9,0.00
2013-7-6,74.2,61.7,47.3,59.4,53.7,45.3,95,76,52,30.42,30.30,13,1,13,0.00
2013-7-7,81.8,68.0,57.6,58.4,55.9,49.7,91,68,33,30.61,30.42,8,1,8,0.00
2013-7-8,88.2,67.6,53.8,64.5,57.9,51.2,93,74,39,30.64,30.47,4,0,4,0.00
2013-7-9,89.7,71.0,55.1,66.4,60.1,53.1,96,72,38,30.47,30.31,6,1,6,0.00
2013-7-10,71.7,62.8,56.8,60.8,56.4,52.2,89,80,66,30.42,30.34,4,1,4,0.00
2013-7-11,84.8,67.6,56.7,68.9,59.5,52.2,89,76,53,30.38,30.24,4,0,4,0.00
2013-7-12,85.6,70.1,55.0,66.4,59.9,53.0,95,73,44,30.26,30.18,5,0,5,0.00
2013-7-13,79.4,66.9,58.3,63.5,58.7,54.3,91,76,51,30.33,30.23,7,1,7,0.00
2013-7-14,73.7,63.0,54.3,56.7,52.9,47.3,91,71,49,30.32,30.17,4,1,4,0.00
2013-7-15,71.0,62.1,52.6,58.0,54.4,47.7,92,77,62,30.20,30.16,6,1,6,0.00
2013-7-16,76.1,65.9,58.1,62.8,58.3,53.6,89,77,52,30.24,30.17,9,1,9,0.00
2013-7-17,75.3,64.6,53.0,60.0,56.0,50.4,95,76,54,30.33,30.24,4,1,4,0.00
2013-7-18,85.4,70.9,56.9,67.9,60.8,54.4,95,72,48,30.36,30.32,5,1,5,0.00
2013-7-19,84.9,68.2,52.5,62.6,56.8,50.0,94,70,41,30.40,30.33,5,1,5,0.00
2013-7-20,82.1,66.2,53.2,63.7,57.1,50.6,94,74,48,30.37,30.27,5,2,5,0.00
2013-7-21,75.4,63.2,57.1,59.7,55.3,52.0,89,77,55,30.31,30.15,7,2,7,0.00
2013-7-22,71.9,62.8,59.1,61.7,57.8,56.1,93,84,68,30.15,30.00,8,2,8,0.00
2013-7-23,73.7,65.1,60.6,66.2,61.1,57.1,93,87,75,30.01,29.85,8,1,8,0.24
2013-7-24,80.0,67.0,57.5,66.2,60.8,56.1,96,82,55,29.90,29.85,8,1,8,0.17
2013-7-25,71.7,63.8,59.3,65.3,60.6,56.7,94,89,76,29.89,29.79,5,1,5,0.34
2013-7-26,71.8,63.5,57.5,63.6,58.9,54.5,94,85,70,29.84,29.81,5,0,5,0.35
2013-7-27,79.8,63.3,50.2,62.0,56.0,48.5,96,79,44,29.84,29.66,5,1,5,0.08
2013-7-28,64.9,61.3,58.5,59.9,57.7,55.9,94,88,77,29.66,29.52,4,0,9,0.50
2013-7-29,72.8,60.3,52.5,62.5,57.0,50.8,96,89,68,29.73,29.62,5,0,5,0.13
2013-7-30,71.1,58.5,49.4,60.1,53.7,47.7,96,85,55,29.79,29.73,9,1,9,0.23
2013-7-31,69.6,58.8,47.7,56.4,52.8,46.3,96,82,58,29.87,29.77,5,0,5,0.10
2013-8-1,69.7,63.5,57.8,63.7,60.4,55.6,95,90,81,29.78,29.62,12,1,14,0.50
2013-8-2,73.6,66.3,59.4,62.3,57.8,54.2,92,75,53,29.62,29.54,15,3,15,0.00
2013-8-3,66.7,60.0,56.0,56.6,53.1,50.2,90,79,58,29.84,29.57,13,3,13,0.02
2013-8-4,73.2,61.6,51.7,55.7,51.8,47.5,92,72,45,29.89,29.84,12,2,12,0.00
2013-8-5,75.0,59.4,50.0,57.4,51.7,47.1,92,77,46,29.88,29.73,4,0,5,0.00
2013-8-6,66.3,57.1,46.1,53.3,49.4,43.5,93,77,56,29.98,29.85,6,0,6,0.00
2013-8-7,71.1,60.5,53.0,57.8,53.8,49.9,92,80,58,30.06,29.96,4,0,4,0.27
2013-8-8,72.5,60.4,50.3,58.8,54.3,48.3,95,82,57,30.06,29.92,6,0,6,0.00
2013-8-9,70.0,61.5,53.9,58.4,54.5,48.5,94,79,55,30.10,29.87,5,1,5,0.05
2013-8-10,64.3,56.6,52.3,53.6,50.2,47.8,87,79,63,30.12,30.00,8,0,8,0.00
2013-8-11,68.6,58.6,51.2,54.6,50.4,47.8,93,75,51,29.93,29.85,9,1,12,0.03
2013-8-12,70.7,57.6,47.7,54.1,49.4,45.2,94,76,49,30.02,29.84,4,1,4,0.02
2013-8-13,68.3,56.8,45.5,51.3,47.9,43.0,94,74,51,30.14,30.02,2,0,2,0.00
2013-8-14,74.8,61.2,51.0,60.2,54.0,46.3,90,78,54,30.14,29.93,12,1,12,0.02
2013-8-15,68.6,63.1,59.9,63.2,60.2,58.1,95,90,78,29.92,29.73,12,2,12,0.26
2013-8-16,70.2,59.2,48.6,59.1,53.8,47.0,96,83,59,29.87,29.73,11,1,11,0.05
2013-8-17,68.9,58.7,52.8,64.0,54.8,50.0,95,87,75,29.84,29.38,9,2,9,0.46
2013-8-18,65.8,56.6,50.8,53.6,49.8,47.2,89,78,59,29.79,29.44,7,2,7,0.02
2013-8-19,66.0,57.9,50.4,54.2,50.2,47.0,91,77,57,30.16,29.79,7,2,7,0.00
2013-8-20,68.0,59.3,52.2,57.5,53.7,48.3,92,82,63,30.24,30.14,6,1,6,0.10
2013-8-21,70.7,62.5,57.9,63.1,58.8,55.8,95,88,73,30.14,30.03,12,0,12,0.28
2013-8-22,70.0,61.7,58.3,62.5,58.2,55.7,93,88,76,30.13,30.01,6,2,6,0.07
2013-8-23,70.5,62.1,57.0,62.8,57.9,53.6,93,86,74,30.01,29.87,5,1,5,0.00
2013-8-24,69.1,60.6,56.9,57.6,55.1,52.2,92,82,63,29.97,29.89,3,0,3,0.00
2013-8-25,73.1,61.6,48.8,61.2,55.7,46.9,95,82,64,30.17,29.97,4,0,4,0.00
2013-8-26,76.2,62.9,55.3,61.3,57.2,51.6,95,83,57,30.18,30.09,5,0,5,0.00
2013-8-27,76.9,60.7,51.4,62.5,55.1,49.3,94,83,58,30.21,30.08,4,0,4,0.00
2013-8-28,65.7,58.4,52.3,56.9,51.7,45.8,92,79,62,30.23,30.09,4,1,4,0.00
2013-8-29,65.0,59.2,53.1,57.3,54.3,47.5,94,84,73,30.09,30.00,6,1,6,0.00
2013-8-30,66.7,58.7,49.1,59.9,53.3,42.9,88,82,68,30.07,29.82,14,2,14,0.00
2013-8-31,64.9,54.3,46.3,48.6,44.6,34.6,89,71,38,30.27,30.06,6,1,6,0.00
2013-9-1,59.7,56.7,53.6,55.5,50.9,47.2,87,81,70,30.26,30.10,8,2,8,0.00
2013-9-2,69.6,63.1,59.4,60.8,57.8,55.5,90,83,73,30.23,30.08,6,2,6,0.00
2013-9-3,73.8,63.4,54.4,60.4,56.4,51.2,93,79,54,30.25,30.18,13,2,13,0.00
2013-9-4,73.3,61.0,52.7,56.1,52.7,48.5,94,76,49,30.18,29.91,8,1,9,0.00
2013-9-5,71.6,57.4,44.9,52.2,47.0,39.9,92,71,40,29.92,29.86,6,0,6,0.00
2013-9-6,58.0,50.3,42.9,48.4,45.1,39.5,93,83,64,29.95,29.89,5,1,5,0.43
2013-9-7,64.1,54.2,46.5,53.5,48.2,44.4,94,81,61,29.93,29.73,13,3,13,0.11
2013-9-8,63.8,53.7,47.2,50.5,46.7,43.2,94,78,56,29.99,29.93,4,1,5,0.11
2013-9-9,66.9,53.4,47.3,55.0,48.6,45.7,95,84,56,30.17,29.95,4,0,4,0.01
2013-9-10,70.2,56.9,47.1,51.1,47.3,43.2,88,72,48,30.24,30.17,16,1,16,0.00
2013-9-11,62.5,55.4,48.5,57.6,52.4,46.0,94,90,80,30.23,30.08,2,0,5,0.27
2013-9-12,65.2,58.2,52.6,59.5,55.2,51.1,96,90,74,30.08,29.87,6,0,6,0.12
2013-9-13,54.9,51.7,47.7,51.3,48.5,45.5,94,89,80,30.11,29.96,4,0,3,0.03
2013-9-14,69.3,51.4,39.3,49.8,44.5,37.8,97,79,46,30.07,29.92,4,0,4,0.01
2013-9-15,58.0,50.5,40.4,56.3,46.7,37.8,95,87,68,29.91,29.17,12,2,12,0.55
2013-9-16,57.7,47.1,38.2,47.2,41.8,36.2,94,82,63,29.32,29.26,7,1,7,0.01
2013-9-17,59.4,52.2,46.0,47.6,43.9,40.8,85,74,59,29.31,29.27,7,1,7,0.00
2013-9-18,59.6,53.4,42.4,48.2,44.4,39.5,96,72,59,29.73,29.29,5,1,5,0.00
2013-9-19,54.9,47.9,40.5,50.8,45.8,38.3,95,92,83,29.77,29.53,4,0,4,0.32
2013-9-20,62.7,52.5,41.3,52.0,47.6,39.7,96,84,66,30.03,29.77,9,1,9,0.00
2013-9-21,62.5,56.8,48.6,58.9,53.2,46.0,93,88,81,30.09,30.02,5,1,5,0.00
2013-9-22,69.5,62.3,52.5,60.4,57.3,50.3,93,84,68,30.28,30.09,12,2,12,0.00
2013-9-23,68.8,58.0,47.8,60.6,54.9,46.4,96,90,74,30.28,30.11,1,0,4,0.00
2013-9-24,62.3,58.6,56.1,57.6,55.8,53.8,93,90,84,30.12,29.97,4,1,4,0.00
2013-9-25,56.6,53.8,47.7,54.3,50.4,44.3,95,88,80,30.07,29.91,8,1,8,0.00
2013-9-26,58.4,51.9,43.7,50.2,46.6,40.7,93,83,69,30.13,30.07,4,1,4,0.00
2013-9-27,59.1,55.4,51.8,55.5,52.8,49.8,94,91,86,30.07,29.94,1,0,1,0.06
2013-9-28,70.6,57.7,46.5,60.0,52.9,45.1,97,85,62,29.94,29.85,4,1,4,0.00
2013-9-29,65.3,55.6,50.8,53.7,49.5,46.0,89,81,62,29.95,29.90,9,2,9,0.00
2013-9-30,59.7,54.7,51.6,51.9,49.5,47.7,89,82,72,29.93,29.84,8,2,8,0.00
2013-10-1,61.4,54.3,51.0,50.1,47.6,45.8,87,79,63,29.92,29.85,7,3,7,0.00
2013-10-2,57.5,55.2,52.8,54.4,51.8,48.4,94,89,82,29.87,29.76,6,2,6,0.42
2013-10-3,64.8,59.0,55.6,62.1,57.1,53.9,95,93,90,29.78,29.54,5,2,5,0.86
2013-10-4,66.9,58.1,53.9,60.4,55.6,51.3,97,91,73,29.82,29.54,2,0,2,0.16
2013-10-5,62.0,55.5,49.1,54.9,51.4,47.2,94,86,73,30.08,29.82,6,1,6,0.01
2013-10-6,63.1,59.3,56.6,58.3,56.0,53.7,93,89,84,30.09,30.04,9,1,9,0.00
2013-10-7,64.7,61.6,58.8,59.5,58.0,56.6,94,88,79,30.07,29.97,12,2,12,0.08
2013-10-8,60.9,56.3,51.5,57.9,52.4,46.2,94,87,77,30.15,29.96,5,1,5,0.24
2013-10-9,52.3,48.2,44.8,48.5,45.3,31.8,93,90,60,30.16,29.95,12,0,12,0.06
2013-10-10,55.7,47.6,43.4,40.1,36.3,32.3,74,65,52,30.45,30.15,14,3,14,0.00
2013-10-11,55.2,44.2,33.1,44.4,38.2,30.5,94,80,66,30.53,30.45,6,1,6,0.00
2013-10-12,59.0,50.6,42.2,47.5,44.1,38.6,91,79,62,30.50,30.28,8,2,8,0.00
2013-10-13,57.1,50.9,45.3,48.7,45.2,39.6,91,81,70,30.29,30.05,9,2,9,0.02
2013-10-14,54.2,51.3,49.0,50.7,47.9,45.1,92,88,83,30.05,29.94,6,1,6,0.13
2013-10-15,54.6,50.2,46.2,47.3,45.4,42.9,91,83,74,30.00,29.91,4,1,4,0.00
2013-10-16,52.7,48.4,44.2,48.3,45.8,42.3,94,91,84,29.99,29.60,7,1,7,0.61
2013-10-17,51.9,48.4,45.6,49.9,46.7,44.3,96,94,92,29.98,29.64,4,1,4,0.14
2013-10-18,52.9,50.5,48.1,51.4,48.0,45.6,95,91,88,30.01,29.69,5,2,5,0.26
2013-10-19,55.4,53.6,50.8,54.0,52.1,49.4,96,95,92,29.69,29.45,5,1,5,0.80
2013-10-20,60.6,53.8,49.8,56.6,51.8,48.7,96,93,83,29.48,29.41,4,1,4,0.28
2013-10-21,57.2,53.4,52.0,51.8,51.0,49.7,95,92,80,29.52,29.25,8,1,8,0.37
2013-10-22,61.2,56.1,53.0,57.1,54.2,51.6,97,93,83,29.27,29.09,8,0,8,0.66
2013-10-23,55.1,51.8,45.1,53.6,48.2,39.9,96,88,71,29.55,28.99,9,1,9,0.19
2013-10-24,52.8,46.7,43.9,46.1,42.8,41.1,93,86,78,29.90,29.55,7,1,7,0.00
2013-10-25,59.0,52.5,49.4,56.6,50.0,44.6,95,91,81,29.85,29.30,7,2,7,0.37
2013-10-26,54.7,51.9,47.8,52.9,48.2,44.9,95,87,75,29.43,29.14,10,1,10,0.06
2013-10-27,52.5,48.7,43.2,48.8,45.8,41.2,94,90,82,29.16,28.83,14,2,14,0.23
2013-10-28,55.2,48.0,42.3,47.8,45.0,40.1,95,89,72,29.33,28.87,4,1,4,0.15
2013-10-29,53.0,45.6,39.8,44.7,40.6,37.3,94,83,67,29.86,29.33,6,1,6,0.00
2013-10-30,52.6,45.0,35.5,50.2,42.1,33.4,96,90,79,29.92,29.59,7,1,7,0.31
2013-10-31,54.3,46.5,40.1,46.9,42.9,38.0,94,87,72,29.80,29.59,12,2,12,0.16
2013-11-1,52.5,45.3,35.2,44.6,40.8,33.1,94,84,72,29.60,29.55,14,2,14,0.02
2013-11-2,45.9,40.8,33.8,44.0,39.1,32.3,96,94,90,29.55,28.85,7,1,7,0.39
2013-11-3,50.0,42.3,32.7,39.8,37.0,30.5,95,82,62,29.28,28.94,9,2,9,0.05
2013-11-4,52.6,38.1,28.5,40.5,33.6,26.7,96,85,61,29.37,29.22,6,0,6,0.00
2013-11-5,41.6,33.4,25.6,37.4,31.6,24.4,96,93,79,29.34,29.17,4,0,7,0.13
2013-11-6,44.9,37.1,30.8,42.0,35.7,29.5,97,95,88,29.36,29.23,4,0,4,0.14
2013-11-7,47.1,40.6,32.3,42.2,38.0,30.6,96,91,80,29.46,29.35,14,2,14,0.15
2013-11-8,49.4,42.0,32.8,43.4,38.6,31.3,95,88,76,29.55,29.45,10,1,10,0.02
2013-11-9,43.9,36.0,31.2,40.4,34.1,29.9,97,93,85,29.65,29.49,4,0,2,0.06
2013-11-10,52.7,39.2,32.4,40.0,34.2,29.7,93,83,60,30.11,29.66,4,0,4,0.00
2013-11-11,52.6,45.9,40.8,49.7,43.0,36.5,96,90,76,30.02,29.81,7,1,7,0.16
2013-11-12,49.7,43.6,38.4,44.7,40.0,36.0,95,87,72,30.35,30.02,9,2,9,0.13
2013-11-13,47.7,44.4,37.9,45.4,41.6,35.8,96,90,80,30.36,29.78,12,2,12,0.17
2013-11-14,47.9,42.3,34.8,44.0,35.8,31.3,90,78,57,30.47,29.77,12,2,12,0.01
2013-11-15,51.6,46.5,37.0,48.5,43.3,33.8,94,89,84,30.47,30.32,10,2,10,0.00
2013-11-16,53.9,50.1,39.6,49.4,46.0,36.8,94,86,79,30.34,30.19,12,3,12,0.01
2013-11-17,50.8,39.0,30.6,42.8,36.7,29.3,96,92,70,30.36,29.93,4,0,4,0.02
2013-11-18,46.3,37.8,29.6,42.8,35.0,27.8,97,90,64,29.92,29.76,4,1,4,0.01
2013-11-19,41.3,35.5,30.0,39.1,30.2,26.4,95,81,63,30.01,29.57,6,1,5,0.09
2013-11-20,48.0,41.2,35.0,41.5,34.9,29.8,93,78,62,29.82,29.37,22,6,22,0.28
2013-11-21,43.8,37.4,28.5,33.0,29.4,24.9,88,73,63,30.16,29.80,12,2,16,0.00
2013-11-22,44.9,29.5,21.7,33.6,25.9,20.0,95,87,62,30.28,30.17,2,0,2,0.00
2013-11-23,49.9,35.0,26.2,40.5,32.0,24.5,95,89,70,30.43,30.28,4,0,4,0.00
2013-11-24,39.8,33.4,28.0,37.7,31.9,26.5,96,94,91,30.69,30.43,4,0,4,0.00
2013-11-25,40.0,29.6,22.9,35.0,27.9,21.4,96,93,79,30.73,30.69,1,0,1,0.00
2013-11-26,50.2,42.6,29.1,47.9,41.1,27.8,97,95,90,30.70,30.49,5,1,5,0.09
2013-11-27,55.2,49.5,44.3,48.8,46.2,42.7,95,88,75,30.52,30.45,6,1,6,0.00
2013-11-28,45.0,38.4,31.4,43.7,36.8,30.1,96,94,89,30.61,30.32,2,0,2,0.02
2013-11-29,48.0,42.9,38.5,45.0,38.0,32.6,96,83,69,30.32,30.08,9,3,10,0.16
2013-11-30,47.1,41.6,35.1,43.7,37.3,30.8,91,85,74,30.39,30.29,5,1,6,0.00
2013-12-1,53.4,42.0,36.0,46.6,39.6,34.4,96,92,76,30.58,30.35,2,0,2,0.00
2013-12-2,46.7,44.2,38.9,43.4,41.2,37.6,96,89,79,30.58,30.31,8,1,8,0.00
2013-12-3,48.9,46.6,37.2,46.5,43.9,32.9,94,90,77,30.31,30.10,10,2,10,0.17
2013-12-4,44.9,39.1,30.8,39.8,35.2,29.0,95,86,76,30.27,30.03,10,2,10,0.01
2013-12-5,48.7,38.8,29.9,44.7,34.1,25.1,92,83,61,30.11,29.38,26,6,26,0.44
2013-12-6,38.8,33.0,27.7,30.7,27.8,23.2,91,81,68,30.32,30.11,4,0,4,0.00
2013-12-7,49.2,38.4,32.7,46.1,36.5,30.6,96,93,87,30.22,29.91,7,0,7,0.04
2013-12-8,53.8,51.0,47.7,50.9,48.4,45.2,94,91,85,29.92,29.83,10,3,12,0.25
2013-12-9,53.9,51.4,48.8,51.2,48.1,43.6,94,88,80,30.18,29.92,8,2,8,0.09
2013-12-10,54.4,50.8,48.1,49.4,46.0,42.1,90,84,77,30.20,30.13,6,1,6,0.00
2013-12-11,53.5,47.8,35.3,50.2,44.5,33.1,95,88,82,30.22,30.02,10,2,10,0.00
2013-12-12,53.6,50.5,42.1,52.2,48.6,38.5,96,93,80,30.02,29.91,7,0,7,0.57
2013-12-13,54.6,50.4,42.7,51.6,47.3,38.2,95,89,80,29.92,29.68,12,2,12,0.13
2013-12-14,51.4,45.8,38.5,49.4,42.3,35.5,93,88,80,29.90,29.41,18,3,18,0.77
2013-12-15,50.2,43.2,38.6,45.6,39.8,35.7,95,88,78,29.85,29.50,16,2,16,0.23
2013-12-16,47.5,42.7,37.6,44.4,38.1,35.2,92,84,75,29.94,29.48,12,3,12,0.08
2013-12-17,48.1,41.1,34.9,40.8,37.1,33.0,95,86,73,30.07,29.73,12,2,12,0.08
2013-12-18,51.1,46.8,42.9,48.4,43.2,36.6,95,87,71,29.74,28.73,23,5,32,0.22
2013-12-19,45.4,38.9,34.9,37.8,35.2,32.8,94,87,73,29.47,28.77,20,4,28,0.32
2013-12-20,51.9,43.9,38.0,48.5,40.8,34.6,93,89,82,29.70,29.32,15,4,15,0.80
2013-12-21,48.4,44.5,38.6,43.8,40.3,36.3,93,85,79,29.46,29.23,22,4,22,0.20
2013-12-22,41.6,38.3,33.8,37.8,35.3,32.1,95,89,81,29.50,29.28,12,2,20,0.47
2013-12-23,49.1,41.0,36.1,46.1,38.2,33.5,96,90,84,29.49,28.27,14,2,14,0.23
2013-12-24,48.6,40.8,37.9,45.8,35.4,30.2,92,81,65,28.43,28.22,26,10,26,0.36
2013-12-25,43.6,41.9,39.5,39.8,38.0,35.1,91,86,76,29.05,28.43,20,4,20,0.23
2013-12-26,44.6,39.9,37.3,40.4,37.0,35.2,93,89,83,29.28,28.63,8,1,8,0.02
2013-12-27,46.3,43.8,38.9,43.3,40.6,36.0,94,89,84,28.70,28.15,21,6,21,0.43
2013-12-28,42.8,41.1,38.7,39.8,37.8,36.7,94,88,82,29.48,28.70,9,3,9,0.29
2013-12-29,45.7,39.8,34.8,42.8,37.3,33.5,96,91,81,29.78,29.47,12,1,12,0.29
2013-12-30,47.3,42.2,35.8,45.3,40.2,34.0,96,92,85,29.59,29.28,13,2,13,1.13
2013-12-31,44.7,41.1,35.7,40.9,38.2,34.0,95,89,84,29.59,29.23,10,1,15,0.09
2014-1-1,46.3,41.1,36.4,44.7,38.9,34.1,95,92,89,29.28,28.66,9,2,9,0.31
2014-1-2,45.7,42.7,40.4,43.5,40.1,37.7,94,90,84,29.11,28.66,13,2,13,0.17